createdAt,value
2022-12-26T00:02:10.559Z,0.87
2022-12-26T00:04:52.359Z,0.91
2022-12-26T00:07:25.716Z,0.90
2022-12-26T00:09:58.793Z,0.86
2022-12-26T00:12:31.139Z,0.94
2022-12-26T00:15:03.908Z,0.93
2022-12-26T00:17:36.289Z,0.93
2022-12-26T00:20:09.687Z,0.94
2022-12-26T00:22:41.976Z,0.91
2022-12-26T00:25:15.254Z,0.92
2022-12-26T00:27:47.836Z,0.94
2022-12-26T00:30:20.253Z,0.94
2022-12-26T00:32:53.942Z,0.95
2022-12-26T00:35:26.328Z,0.98
2022-12-26T00:37:59.747Z,0.95
2022-12-26T00:40:32.838Z,0.93
2022-12-26T00:43:05.153Z,0.93
2022-12-26T00:45:37.469Z,0.88
2022-12-26T00:48:10.094Z,0.88
2022-12-26T00:50:42.510Z,0.90
2022-12-26T00:53:14.852Z,0.89
2022-12-26T00:55:48.746Z,0.81
2022-12-26T00:58:21.981Z,0.83
2022-12-26T01:00:55.055Z,0.85
2022-12-26T01:03:27.439Z,0.86
2022-12-26T01:06:02.595Z,0.88
2022-12-26T01:08:34.961Z,0.90
2022-12-26T01:11:11.681Z,0.86
2022-12-26T01:13:44.065Z,0.83
2022-12-26T01:16:18.932Z,0.85
2022-12-26T01:18:51.289Z,0.80
2022-12-26T01:21:23.696Z,0.82
2022-12-26T01:23:56.039Z,0.86
2022-12-26T01:26:29.173Z,0.86
2022-12-26T01:29:01.956Z,0.83
2022-12-26T01:31:34.410Z,0.73
2022-12-26T01:34:06.753Z,0.78
2022-12-26T01:36:39.201Z,0.74
2022-12-26T01:39:11.600Z,0.75
2022-12-26T01:41:44.656Z,0.75
2022-12-26T01:44:55.097Z,0.74
2022-12-26T01:47:38.463Z,0.73
2022-12-26T01:50:25.167Z,0.76
2022-12-26T01:53:02.469Z,0.74
2022-12-26T01:55:34.823Z,0.76
2022-12-26T01:58:12.416Z,0.74
2022-12-26T02:00:44.882Z,0.75
2022-12-26T02:03:36.051Z,0.76
2022-12-26T02:06:10.301Z,0.68
2022-12-26T02:08:44.831Z,0.62
2022-12-26T02:11:21.258Z,0.66
2022-12-26T02:13:54.837Z,0.65
2022-12-26T02:16:27.361Z,0.68
2022-12-26T02:18:59.859Z,0.61
2022-12-26T02:22:10.282Z,0.61
2022-12-26T02:25:03.373Z,0.63
2022-12-26T02:27:52.729Z,0.60
2022-12-26T02:30:36.540Z,0.55
2022-12-26T02:33:25.402Z,0.59
2022-12-26T02:36:22.326Z,0.59
2022-12-26T02:39:44.411Z,0.55
2022-12-26T02:42:09.421Z,0.58
2022-12-26T02:45:04.983Z,0.52
2022-12-26T02:47:46.352Z,0.51
2022-12-26T02:50:48.511Z,0.50
2022-12-26T02:53:50.643Z,0.52
2022-12-26T02:56:49.251Z,0.51
2022-12-26T02:59:55.052Z,0.51
2022-12-26T03:02:52.801Z,0.46
2022-12-26T03:05:49.605Z,0.40
2022-12-26T03:08:48.355Z,0.50
2022-12-26T03:11:40.842Z,0.51
2022-12-26T03:14:17.115Z,0.50
2022-12-26T03:17:15.032Z,0.49
2022-12-26T03:20:02.180Z,0.53
2022-12-26T03:22:40.742Z,0.52
2022-12-26T03:25:37.529Z,0.51
2022-12-26T03:28:10.003Z,0.52
2022-12-26T03:30:48.782Z,0.48
2022-12-26T03:33:44.610Z,0.49
2022-12-26T03:36:24.066Z,0.48
2022-12-26T03:39:07.016Z,0.48
2022-12-26T03:42:05.744Z,0.47
2022-12-26T03:45:05.533Z,0.48
2022-12-26T03:48:00.247Z,0.47
2022-12-26T03:50:54.960Z,0.42
2022-12-26T03:54:05.111Z,0.38
2022-12-26T03:57:03.689Z,0.37
2022-12-26T04:00:00.398Z,0.37
2022-12-26T04:02:53.129Z,0.40
2022-12-26T04:05:44.747Z,0.35
2022-12-26T04:08:41.851Z,0.38
2022-12-26T04:11:35.283Z,0.43
2022-12-26T04:14:36.917Z,0.40
2022-12-26T04:17:34.960Z,0.40
2022-12-26T04:20:16.391Z,0.33
2022-12-26T04:23:12.108Z,0.34
2022-12-26T04:26:07.738Z,0.33
2022-12-26T04:28:58.296Z,0.36
2022-12-26T04:31:54.612Z,0.34
2022-12-26T04:34:55.965Z,0.31
2022-12-26T04:37:48.502Z,0.22
2022-12-26T04:40:44.392Z,0.20
2022-12-26T04:43:49.689Z,0.22
2022-12-26T04:46:25.288Z,0.18
2022-12-26T04:49:17.837Z,0.19
2022-12-26T04:51:50.904Z,0.02
2022-12-26T04:54:23.363Z,0.14
2022-12-26T04:56:55.918Z,0.01
2022-12-26T04:59:28.636Z,0.04
2022-12-26T05:02:19.742Z,-0.01
2022-12-26T05:05:10.980Z,0.04
2022-12-26T05:08:01.691Z,0.03
2022-12-26T05:10:34.073Z,0.02
2022-12-26T05:13:06.336Z,-0.04
2022-12-26T05:15:53.393Z,0.01
2022-12-26T05:18:43.520Z,-0.03
2022-12-26T05:21:36.972Z,-0.06
2022-12-26T05:24:28.232Z,-0.18
2022-12-26T05:27:18.680Z,-0.19
2022-12-26T05:29:51.095Z,-0.30
2022-12-26T05:32:41.548Z,-0.26
2022-12-26T05:35:13.931Z,-0.22
2022-12-26T05:37:46.982Z,-0.22
2022-12-26T05:40:19.359Z,-0.30
2022-12-26T05:42:51.759Z,-0.37
2022-12-26T05:45:24.233Z,-0.36
2022-12-26T05:47:58.544Z,-0.35
2022-12-26T05:50:30.832Z,-0.31
2022-12-26T05:53:04.208Z,-0.35
2022-12-26T05:55:36.538Z,-0.34
2022-12-26T05:58:08.996Z,-0.32
2022-12-26T06:00:41.323Z,-0.31
2022-12-26T06:03:13.901Z,-0.26
2022-12-26T06:05:46.293Z,-0.30
2022-12-26T06:08:19.344Z,-0.23
2022-12-26T06:10:51.714Z,-0.23
2022-12-26T06:13:24.425Z,-0.21
2022-12-26T06:15:57.857Z,-0.24
2022-12-26T06:18:30.568Z,-0.23
2022-12-26T06:21:05.484Z,-0.41
2022-12-26T06:23:39.171Z,-0.43
2022-12-26T06:26:12.239Z,-0.36
2022-12-26T06:28:45.990Z,-0.31
2022-12-26T06:31:21.695Z,-0.31
2022-12-26T06:33:57.881Z,-0.25
2022-12-26T06:36:30.437Z,-0.23
2022-12-26T06:39:03.547Z,-0.23
2022-12-26T06:41:35.873Z,-0.18
2022-12-26T06:44:16.123Z,-0.14
2022-12-26T06:46:50.429Z,-0.11
2022-12-26T06:49:32.209Z,-0.11
2022-12-26T06:52:05.544Z,-0.19
2022-12-26T06:54:38.834Z,-0.04
2022-12-26T06:57:11.200Z,-0.03
2022-12-26T06:59:43.612Z,-0.01
2022-12-26T07:02:16.043Z,0.04
2022-12-26T07:04:48.564Z,0.08
2022-12-26T07:07:20.902Z,0.07
2022-12-26T07:09:53.992Z,0.12
2022-12-26T07:12:26.288Z,0.17
2022-12-26T07:15:01.580Z,0.23
2022-12-26T07:17:36.384Z,0.29
2022-12-26T07:20:10.549Z,0.30
2022-12-26T07:22:42.869Z,0.38
2022-12-26T07:25:16.015Z,0.45
2022-12-26T07:27:52.183Z,0.49
2022-12-26T07:30:24.572Z,0.54
2022-12-26T07:32:58.396Z,0.59
2022-12-26T07:35:30.808Z,0.59
2022-12-26T07:38:03.112Z,0.74
2022-12-26T07:40:36.205Z,0.86
2022-12-26T07:43:08.507Z,0.96
2022-12-26T07:45:45.590Z,1.10
2022-12-26T07:48:18.551Z,1.18
2022-12-26T07:50:51.447Z,1.27
2022-12-26T07:53:23.728Z,1.37
2022-12-26T07:55:59.233Z,1.47
2022-12-26T07:58:31.693Z,1.59
2022-12-26T08:01:05.871Z,1.74
2022-12-26T08:03:38.343Z,1.88
2022-12-26T08:06:11.324Z,2.01
2022-12-26T08:08:50.256Z,2.16
2022-12-26T08:11:24.700Z,2.31
2022-12-26T08:13:57.371Z,2.49
2022-12-26T08:16:30.546Z,2.65
2022-12-26T08:19:03.344Z,2.82
2022-12-26T08:21:35.764Z,3.01
2022-12-26T08:24:08.208Z,3.25
2022-12-26T08:26:41.320Z,3.41
2022-12-26T08:29:13.640Z,3.53
2022-12-26T08:31:46.077Z,3.71
2022-12-26T08:34:18.652Z,3.85
2022-12-26T08:36:51.559Z,4.01
2022-12-26T08:39:23.897Z,4.12
2022-12-26T08:41:56.882Z,4.23
2022-12-26T08:44:29.455Z,4.39
2022-12-26T08:47:01.913Z,4.47
2022-12-26T08:49:34.213Z,4.56
2022-12-26T08:52:07.184Z,4.66
2022-12-26T08:54:39.503Z,4.77
2022-12-26T08:57:13.205Z,4.86
2022-12-26T08:59:45.524Z,4.98
2022-12-26T09:02:18.073Z,5.08
2022-12-26T09:04:50.501Z,5.10
2022-12-26T09:07:24.219Z,5.20
2022-12-26T09:09:56.608Z,5.26
2022-12-26T09:12:29.613Z,5.40
2022-12-26T09:15:01.957Z,5.56
2022-12-26T09:17:34.430Z,5.75
2022-12-26T09:20:07.854Z,5.89
2022-12-26T09:22:51.975Z,6.00
2022-12-26T09:25:25.526Z,6.18
2022-12-26T09:27:59.516Z,6.37
2022-12-26T09:30:32.027Z,6.58
2022-12-26T09:33:07.089Z,6.82
2022-12-26T09:35:39.636Z,7.07
2022-12-26T09:38:12.049Z,7.24
2022-12-26T09:40:55.180Z,7.39
2022-12-26T09:43:49.802Z,7.70
2022-12-26T09:46:30.568Z,7.88
2022-12-26T09:49:09.935Z,8.13
2022-12-26T09:51:49.227Z,8.10
2022-12-26T09:54:31.141Z,8.27
2022-12-26T09:57:14.814Z,8.56
2022-12-26T09:59:53.869Z,8.68
2022-12-26T10:02:26.569Z,8.80
2022-12-26T10:04:59.238Z,8.98
2022-12-26T10:07:40.228Z,9.12
2022-12-26T10:10:16.091Z,9.35
2022-12-26T10:12:58.039Z,9.57
2022-12-26T10:15:41.601Z,9.75
2022-12-26T10:18:29.786Z,9.87
2022-12-26T10:21:15.766Z,10.08
2022-12-26T10:23:51.197Z,10.33
2022-12-26T10:26:29.611Z,10.42
2022-12-26T10:29:10.575Z,10.39
2022-12-26T10:31:47.967Z,10.65
2022-12-26T10:34:24.089Z,10.72
2022-12-26T10:37:00.357Z,10.83
2022-12-26T10:39:37.161Z,10.84
2022-12-26T10:42:22.054Z,11.01
2022-12-26T10:44:54.530Z,11.04
2022-12-26T10:47:30.304Z,11.29
2022-12-26T10:50:03.900Z,11.33
2022-12-26T10:52:39.580Z,11.41
2022-12-26T10:55:28.492Z,11.40
2022-12-26T10:58:09.105Z,11.61
2022-12-26T11:00:41.741Z,11.80
2022-12-26T11:03:17.034Z,11.86
2022-12-26T11:06:08.804Z,11.91
2022-12-26T11:08:48.830Z,11.93
2022-12-26T11:11:24.328Z,12.14
2022-12-26T11:14:02.114Z,12.16
2022-12-26T11:16:38.491Z,12.17
2022-12-26T11:19:26.770Z,12.27
2022-12-26T11:22:22.460Z,12.32
2022-12-26T11:25:18.435Z,12.33
2022-12-26T11:27:52.773Z,12.45
2022-12-26T11:30:30.326Z,12.51
2022-12-26T11:33:24.411Z,12.54
2022-12-26T11:36:10.644Z,12.30
2022-12-26T11:38:49.783Z,12.47
2022-12-26T11:41:39.762Z,12.58
2022-12-26T11:44:17.611Z,12.50
2022-12-26T11:46:54.773Z,12.48
2022-12-26T11:49:31.873Z,12.55
2022-12-26T11:52:34.291Z,12.69
2022-12-26T11:55:27.076Z,12.66
2022-12-26T11:58:05.490Z,12.67
2022-12-26T12:00:40.506Z,12.48
2022-12-26T12:03:15.887Z,12.81
2022-12-26T12:05:54.869Z,12.79
2022-12-26T12:08:36.765Z,12.72
2022-12-26T12:11:20.622Z,12.75
2022-12-26T12:14:12.356Z,12.46
2022-12-26T12:16:54.046Z,12.61
2022-12-26T12:19:43.958Z,12.48
2022-12-26T12:22:35.128Z,12.72
2022-12-26T12:25:36.711Z,12.59
2022-12-26T12:28:28.120Z,12.56
2022-12-26T12:31:07.950Z,12.67
2022-12-26T12:33:49.266Z,12.70
2022-12-26T12:36:28.819Z,12.49
2022-12-26T12:39:10.309Z,12.42
2022-12-26T12:42:05.608Z,12.47
2022-12-26T12:44:56.912Z,12.46
2022-12-26T12:47:40.101Z,12.53
2022-12-26T12:50:22.802Z,12.40
2022-12-26T12:53:05.168Z,12.57
2022-12-26T12:55:59.206Z,12.71
2022-12-26T12:58:41.178Z,12.63
2022-12-26T13:01:18.509Z,12.74
2022-12-26T13:03:57.628Z,12.74
2022-12-26T13:06:36.180Z,12.66
2022-12-26T13:09:14.964Z,12.61
2022-12-26T13:11:52.277Z,12.51
2022-12-26T13:14:28.684Z,12.34
2022-12-26T13:17:05.892Z,12.52
2022-12-26T13:19:48.647Z,12.54
2022-12-26T13:22:26.688Z,12.46
2022-12-26T13:25:01.493Z,12.21
2022-12-26T13:27:37.740Z,12.20
2022-12-26T13:30:14.998Z,12.16
2022-12-26T13:32:48.133Z,12.22
2022-12-26T13:35:55.419Z,12.25
2022-12-26T13:39:00.996Z,12.18
2022-12-26T13:41:53.219Z,12.13
2022-12-26T13:44:26.904Z,11.97
2022-12-26T13:47:00.221Z,11.96
2022-12-26T13:49:35.751Z,12.04
2022-12-26T13:52:31.259Z,12.00
2022-12-26T13:55:41.454Z,12.19
2022-12-26T13:58:48.772Z,12.18
2022-12-26T14:01:36.422Z,12.24
2022-12-26T14:04:31.458Z,12.25
2022-12-26T14:07:21.071Z,12.28
2022-12-26T14:10:02.861Z,12.30
2022-12-26T14:12:46.477Z,12.14
2022-12-26T14:15:29.453Z,12.31
2022-12-26T14:18:32.588Z,12.13
2022-12-26T14:21:39.839Z,12.14
2022-12-26T14:24:24.555Z,12.04
2022-12-26T14:27:16.130Z,11.87
2022-12-26T14:29:58.868Z,11.94
2022-12-26T14:32:41.600Z,11.95
2022-12-26T14:35:26.351Z,11.87
2022-12-26T14:38:11.752Z,11.77
2022-12-26T14:40:58.674Z,11.69
2022-12-26T14:43:37.989Z,11.58
2022-12-26T14:46:43.696Z,11.60
2022-12-26T14:49:23.044Z,11.52
2022-12-26T14:52:15.537Z,11.49
2022-12-26T14:54:51.481Z,11.43
2022-12-26T14:57:45.838Z,11.35
2022-12-26T15:00:35.131Z,11.04
2022-12-26T15:03:30.150Z,10.96
2022-12-26T15:06:37.272Z,10.84
2022-12-26T15:09:23.151Z,10.74
2022-12-26T15:12:31.314Z,10.59
2022-12-26T15:15:31.926Z,10.43
2022-12-26T15:18:26.661Z,10.29
2022-12-26T15:21:24.679Z,10.20
2022-12-26T15:24:22.763Z,10.12
2022-12-26T15:27:41.128Z,10.03
2022-12-26T15:30:20.224Z,9.87
2022-12-26T15:33:01.432Z,9.72
2022-12-26T15:35:39.033Z,9.63
2022-12-26T15:38:19.722Z,9.52
2022-12-26T15:40:59.604Z,9.35
2022-12-26T15:43:48.909Z,8.90
2022-12-26T15:46:26.956Z,8.95
2022-12-26T15:49:24.554Z,8.83
2022-12-26T15:52:05.536Z,8.79
2022-12-26T15:55:13.392Z,8.39
2022-12-26T15:57:54.417Z,8.42
2022-12-26T16:00:29.807Z,8.26
2022-12-26T16:03:28.814Z,8.32
2022-12-26T16:06:19.581Z,8.25
2022-12-26T16:09:18.733Z,8.18
2022-12-26T16:11:55.372Z,8.02
2022-12-26T16:14:32.904Z,7.93
2022-12-26T16:17:21.857Z,7.98
2022-12-26T16:19:55.549Z,7.86
2022-12-26T16:22:48.695Z,7.86
2022-12-26T16:25:23.636Z,7.87
2022-12-26T16:27:57.935Z,7.79
2022-12-26T16:30:35.594Z,7.86
2022-12-26T16:33:08.261Z,7.84
2022-12-26T16:35:42.119Z,7.79
2022-12-26T16:38:17.971Z,7.76
2022-12-26T16:40:51.835Z,7.74
2022-12-26T16:43:27.747Z,7.56
2022-12-26T16:46:04.281Z,7.57
2022-12-26T16:48:36.852Z,7.54
2022-12-26T16:51:31.957Z,7.51
2022-12-26T16:54:17.011Z,7.26
2022-12-26T16:56:53.419Z,7.25
2022-12-26T16:59:34.519Z,7.27
2022-12-26T17:02:15.269Z,7.05
2022-12-26T17:04:58.388Z,7.10
2022-12-26T17:07:32.731Z,7.00
2022-12-26T17:10:12.320Z,7.04
2022-12-26T17:12:47.280Z,7.02
2022-12-26T17:15:22.589Z,7.00
2022-12-26T17:17:55.144Z,6.91
2022-12-26T17:20:34.729Z,6.83
2022-12-26T17:23:33.709Z,6.78
2022-12-26T17:26:23.524Z,6.75
2022-12-26T17:28:55.781Z,6.74
2022-12-26T17:31:34.431Z,6.72
2022-12-26T17:34:12.682Z,6.71
2022-12-26T17:37:17.761Z,6.67
2022-12-26T17:39:37.402Z,6.58
2022-12-26T17:42:13.267Z,6.58
2022-12-26T17:44:45.819Z,6.53
2022-12-26T17:47:21.670Z,6.53
2022-12-26T17:49:55.472Z,6.49
2022-12-26T17:52:29.128Z,6.47
2022-12-26T17:55:03.887Z,6.31
2022-12-26T17:57:37.085Z,6.40
2022-12-26T18:00:16.106Z,6.36
2022-12-26T18:02:48.956Z,6.28
2022-12-26T18:05:21.749Z,6.09
2022-12-26T18:07:56.029Z,6.18
2022-12-26T18:10:32.891Z,6.06
2022-12-26T18:13:09.599Z,6.13
2022-12-26T18:15:42.012Z,6.14
2022-12-26T18:18:23.252Z,6.08
2022-12-26T18:20:55.791Z,6.04
2022-12-26T18:23:28.565Z,6.04
2022-12-26T18:26:02.969Z,5.92
2022-12-26T18:28:36.201Z,5.94
2022-12-26T18:31:12.175Z,5.94
2022-12-26T18:33:44.824Z,5.96
2022-12-26T18:36:17.812Z,5.97
2022-12-26T18:38:50.254Z,6.00
2022-12-26T18:41:24.442Z,6.02
2022-12-26T18:43:59.146Z,6.00
2022-12-26T18:46:31.796Z,5.99
2022-12-26T18:49:06.191Z,6.04
2022-12-26T18:51:39.823Z,6.04
2022-12-26T18:54:12.501Z,6.09
2022-12-26T18:56:45.767Z,6.07
2022-12-26T18:59:19.495Z,6.06
2022-12-26T19:01:52.417Z,6.13
2022-12-26T19:04:25.644Z,6.15
2022-12-26T19:06:59.215Z,6.09
2022-12-26T19:09:32.392Z,6.04
2022-12-26T19:12:06.995Z,6.05
2022-12-26T19:14:42.080Z,5.98
2022-12-26T19:17:15.198Z,5.91
2022-12-26T19:19:48.278Z,5.97
2022-12-26T19:22:21.165Z,5.96
2022-12-26T19:24:53.750Z,5.96
2022-12-26T19:27:26.120Z,5.90
2022-12-26T19:29:59.268Z,5.90
2022-12-26T19:32:31.599Z,5.89
2022-12-26T19:35:05.399Z,5.90
2022-12-26T19:37:38.069Z,5.90
2022-12-26T19:40:11.769Z,5.87
2022-12-26T19:42:44.210Z,5.62
2022-12-26T19:45:17.387Z,5.65
2022-12-26T19:47:49.744Z,5.67
2022-12-26T19:50:22.128Z,5.57
2022-12-26T19:52:54.484Z,5.63
2022-12-26T19:55:27.042Z,5.54
2022-12-26T19:57:59.397Z,5.57
2022-12-26T20:00:32.517Z,5.55
2022-12-26T20:03:04.945Z,5.54
2022-12-26T20:05:37.861Z,5.48
2022-12-26T20:08:10.704Z,5.41
2022-12-26T20:10:43.064Z,5.43
2022-12-26T20:13:15.595Z,5.45
2022-12-26T20:15:48.694Z,5.46
2022-12-26T20:18:21.000Z,5.48
2022-12-26T20:20:53.745Z,5.46
2022-12-26T20:23:26.083Z,5.46
2022-12-26T20:25:58.607Z,5.37
2022-12-26T20:28:30.905Z,5.40
2022-12-26T20:31:11.492Z,5.32
2022-12-26T20:33:46.872Z,5.23
2022-12-26T20:36:21.175Z,5.27
2022-12-26T20:38:56.485Z,5.27
2022-12-26T20:41:29.873Z,5.17
2022-12-26T20:44:02.205Z,5.26
2022-12-26T20:46:35.776Z,5.21
2022-12-26T20:49:09.187Z,4.90
2022-12-26T20:51:43.408Z,5.04
2022-12-26T20:54:18.934Z,4.96
2022-12-26T20:56:52.514Z,4.99
2022-12-26T20:59:26.823Z,4.78
2022-12-26T21:02:00.492Z,4.79
2022-12-26T21:04:32.936Z,4.78
2022-12-26T21:07:05.366Z,4.66
2022-12-26T21:09:42.465Z,4.75
2022-12-26T21:12:18.265Z,4.75
2022-12-26T21:14:50.788Z,4.75
2022-12-26T21:17:23.964Z,4.74
2022-12-26T21:19:56.244Z,4.80
2022-12-26T21:22:28.731Z,4.83
2022-12-26T21:25:01.585Z,4.84
2022-12-26T21:27:35.152Z,4.63
2022-12-26T21:30:08.439Z,4.47
2022-12-26T21:32:41.530Z,4.51
2022-12-26T21:35:14.226Z,4.54
2022-12-26T21:37:51.718Z,4.57
2022-12-26T21:40:26.834Z,4.53
2022-12-26T21:42:59.230Z,4.65
2022-12-26T21:45:31.549Z,4.72
2022-12-26T21:48:04.967Z,4.69
2022-12-26T21:50:37.565Z,4.62
2022-12-26T21:53:09.975Z,4.71
2022-12-26T21:55:42.307Z,4.71
2022-12-26T21:58:14.704Z,4.78
2022-12-26T22:00:47.055Z,4.82
2022-12-26T22:03:38.280Z,4.81
2022-12-26T22:06:15.855Z,4.80
2022-12-26T22:08:48.255Z,4.88
2022-12-26T22:11:53.152Z,4.90
2022-12-26T22:14:25.516Z,4.88
2022-12-26T22:16:58.397Z,4.94
2022-12-26T22:19:31.433Z,5.01
2022-12-26T22:22:03.766Z,5.04
2022-12-26T22:24:36.130Z,5.05
2022-12-26T22:27:08.438Z,5.05
2022-12-26T22:29:40.809Z,5.01
2022-12-26T22:32:13.124Z,4.95
2022-12-26T22:34:46.195Z,4.99
2022-12-26T22:37:18.542Z,4.97
2022-12-26T22:39:50.926Z,4.98
2022-12-26T22:42:31.401Z,4.87
2022-12-26T22:45:04.422Z,4.87
2022-12-26T22:47:36.715Z,4.84
2022-12-26T22:50:14.523Z,4.80
2022-12-26T22:52:46.894Z,4.78
2022-12-26T22:55:19.272Z,4.76
2022-12-26T22:57:52.901Z,4.74
2022-12-26T23:00:26.175Z,4.78
2022-12-26T23:02:58.570Z,4.77
2022-12-26T23:05:32.143Z,4.81
2022-12-26T23:08:05.772Z,4.77
2022-12-26T23:10:38.865Z,4.80
2022-12-26T23:13:12.268Z,4.83
2022-12-26T23:15:53.584Z,4.83
2022-12-26T23:18:53.059Z,4.81
2022-12-26T23:21:44.303Z,4.83
2022-12-26T23:24:20.019Z,4.84
2022-12-26T23:26:53.929Z,4.79
2022-12-26T23:29:44.529Z,4.91
2022-12-26T23:32:16.883Z,4.89
2022-12-26T23:34:49.164Z,4.58
2022-12-26T23:37:22.227Z,4.74
2022-12-26T23:39:54.554Z,4.70
2022-12-26T23:42:27.027Z,4.68
2022-12-26T23:44:59.599Z,4.57
2022-12-26T23:47:35.353Z,4.61
2022-12-26T23:50:09.171Z,4.41
2022-12-26T23:52:43.413Z,4.47
2022-12-26T23:55:15.778Z,4.50
2022-12-26T23:57:48.579Z,4.49
